Time;durP1;ratioP1;P1;durP2;ratioP2;P2;SDS_P1;SDS_P2;PMS_P1;PMS_P2;Temp;Humidity;BMP_temperature;BMP_pressure;BME280_temperature;BME280_humidity;BME280_pressure;Samples;Min_cycle;Max_cycle;Signal;HPM_P1;HPM_P2
2023/01/04 00:01:19;;;;;;;7.15;2.60;;;;;;;3.22;100.00;101767.06;5060171;28;20048;-76
2023/01/04 00:03:44;;;;;;;5.40;3.10;;;;;;;3.27;100.00;101762.03;5064552;28;20032;-76
2023/01/04 00:06:12;;;;;;;5.18;2.25;;;;;;;3.29;100.00;101756.03;5061302;28;20036;-76
2023/01/04 00:08:37;;;;;;;7.40;3.08;;;;;;;3.31;100.00;101753.50;5064151;28;20040;-76
2023/01/04 00:11:05;;;;;;;7.22;3.13;;;;;;;3.33;100.00;101749.25;5062270;28;20036;-76
2023/01/04 00:13:31;;;;;;;4.72;2.53;;;;;;;3.34;100.00;101748.41;5062670;28;20119;-76
2023/01/04 00:15:57;;;;;;;5.90;3.40;;;;;;;3.35;100.00;101744.97;5063569;28;20060;-76
2023/01/04 00:18:23;;;;;;;5.80;3.05;;;;;;;3.37;100.00;101734.63;5060828;28;20052;-76
2023/01/04 00:20:48;;;;;;;6.55;2.70;;;;;;;3.38;100.00;101734.69;5058794;28;20044;-75
2023/01/04 00:23:14;;;;;;;10.77;5.28;;;;;;;3.36;100.00;101725.91;5061178;28;20028;-76
2023/01/04 00:25:39;;;;;;;6.95;3.20;;;;;;;3.33;100.00;101720.56;5062035;28;20039;-76
2023/01/04 00:28:05;;;;;;;8.30;3.63;;;;;;;3.33;100.00;101730.06;5061006;28;20032;-76
2023/01/04 00:30:30;;;;;;;8.98;3.15;;;;;;;3.30;100.00;101736.06;5063412;28;20035;-75
2023/01/04 00:32:56;;;;;;;6.93;3.28;;;;;;;3.32;100.00;101729.19;5043149;28;20029;-75
2023/01/04 00:35:22;;;;;;;5.47;3.03;;;;;;;3.38;100.00;101725.94;5063902;28;20040;-76
2023/01/04 00:37:47;;;;;;;5.68;3.60;;;;;;;3.39;100.00;101715.59;5060969;28;20037;-76
2023/01/04 00:40:12;;;;;;;5.25;2.80;;;;;;;3.36;100.00;101715.47;5062671;28;20131;-76
2023/01/04 00:42:38;;;;;;;5.22;2.75;;;;;;;3.33;100.00;101717.94;5061600;28;20130;-75
2023/01/04 00:45:03;;;;;;;6.90;3.38;;;;;;;3.27;100.00;101720.28;5062780;28;20060;-76
2023/01/04 00:47:28;;;;;;;4.55;2.63;;;;;;;3.20;100.00;101711.31;5060423;28;20028;-76
2023/01/04 00:49:54;;;;;;;4.75;2.90;;;;;;;3.15;100.00;101709.34;5060313;28;20056;-76
2023/01/04 00:52:19;;;;;;;4.88;2.55;;;;;;;3.11;100.00;101710.03;5063789;28;20385;-76
2023/01/04 00:54:45;;;;;;;4.10;2.13;;;;;;;3.05;100.00;101695.00;5061263;28;20793;-75
2023/01/04 00:57:10;;;;;;;6.05;3.13;;;;;;;3.00;100.00;101689.56;5061042;28;20603;-76
2023/01/04 00:59:35;;;;;;;5.72;2.90;;;;;;;2.94;100.00;101678.91;5062227;28;20505;-75
2023/01/04 01:02:01;;;;;;;7.53;3.10;;;;;;;2.92;100.00;101680.53;5057165;28;20040;-75
2023/01/04 01:04:26;;;;;;;5.45;2.85;;;;;;;2.90;100.00;101681.28;5061299;28;20047;-76
2023/01/04 01:06:52;;;;;;;6.28;2.72;;;;;;;2.84;100.00;101693.25;5062242;28;20040;-76
2023/01/04 01:09:17;;;;;;;6.35;2.55;;;;;;;2.79;100.00;101684.31;5062826;28;20226;-76
2023/01/04 01:11:43;;;;;;;4.03;2.17;;;;;;;2.76;100.00;101685.91;5061094;28;20116;-75
2023/01/04 01:14:15;;;;;;;6.28;2.60;;;;;;;2.71;100.00;101680.50;5061835;28;20048;-76
2023/01/04 01:16:41;;;;;;;;;;;;;;;2.62;100.00;101675.78;5063768;28;20457;-75
2023/01/04 01:19:06;;;;;;;4.53;2.35;;;;;;;2.58;100.00;101678.16;5060265;28;19912;-75
2023/01/04 01:21:31;;;;;;;5.70;3.05;;;;;;;2.53;100.00;101680.56;5062701;28;20398;-76
2023/01/04 01:23:57;;;;;;;4.82;2.70;;;;;;;2.50;100.00;101680.44;5061074;28;20035;-76
2023/01/04 01:26:24;;;;;;;5.15;2.60;;;;;;;2.48;100.00;101676.84;5061435;28;20075;-75
2023/01/04 01:28:50;;;;;;;4.75;2.60;;;;;;;2.48;100.00;101660.34;5062695;28;20044;-76
2023/01/04 01:31:23;;;;;;;6.65;2.60;;;;;;;2.46;100.00;101649.84;5058944;28;20124;-75
2023/01/04 01:33:50;;;;;;;4.60;2.42;;;;;;;2.43;100.00;101649.69;5056637;28;20032;-75
2023/01/04 01:36:17;;;;;;;6.25;3.13;;;;;;;2.44;100.00;101641.09;5061536;28;20092;-76
2023/01/04 01:38:42;;;;;;;4.82;2.65;;;;;;;2.48;100.00;101632.56;5060962;28;20033;-76
2023/01/04 01:41:16;;;;;;;4.75;2.25;;;;;;;2.55;100.00;101641.56;5055739;28;20048;-76
2023/01/04 01:43:53;;;;;;;4.13;2.50;;;;;;;2.59;100.00;101646.97;5061195;28;20033;-76
2023/01/04 01:46:41;;;;;;;7.47;2.95;;;;;;;2.59;100.00;101638.25;5060139;28;20044;-76
2023/01/04 01:49:32;;;;;;;6.63;2.67;;;;;;;2.60;100.00;101642.66;5062527;28;20032;-76
2023/01/04 01:52:02;;;;;;;7.40;2.67;;;;;;;2.61;100.00;101641.81;5062859;28;20034;-76
2023/01/04 01:54:33;;;;;;;5.80;2.42;;;;;;;2.59;100.00;101646.06;5060113;28;20045;-75
2023/01/04 01:57:00;;;;;;;5.40;2.70;;;;;;;2.54;100.00;101643.28;5065415;28;20455;-76
2023/01/04 01:59:27;;;;;;;5.78;2.70;;;;;;;2.52;100.00;101642.31;5066806;28;20040;-76
2023/01/04 02:01:52;;;;;;;4.65;2.20;;;;;;;2.52;100.00;101642.31;5062772;28;20041;-76
2023/01/04 02:04:18;;;;;;;4.15;1.77;;;;;;;2.52;100.00;101636.22;5067268;28;20217;-75
2023/01/04 02:06:48;;;;;;;4.25;2.20;;;;;;;2.55;100.00;101636.34;5064241;28;20041;-76
2023/01/04 02:09:15;;;;;;;3.53;2.22;;;;;;;2.54;100.00;101638.06;5064815;28;20041;-75
2023/01/04 02:11:40;;;;;;;3.63;2.00;;;;;;;2.53;100.00;101636.25;5066509;28;20556;-75
2023/01/04 02:14:26;;;;;;;6.65;2.67;;;;;;;2.53;100.00;101633.66;5063559;28;20044;-76
2023/01/04 02:16:55;;;;;;;6.38;2.38;;;;;;;2.55;100.00;101618.09;5062284;28;20035;-76
2023/01/04 02:19:54;;;;;;;3.70;2.28;;;;;;;2.59;100.00;101623.53;5039110;28;20048;-75
2023/01/04 02:22:58;;;;;;;3.63;2.30;;;;;;;2.59;100.00;101607.88;5062434;28;20044;-76
2023/01/04 02:26:02;;;;;;;4.32;1.80;;;;;;;2.61;100.00;101606.22;5066196;28;20050;-76
2023/01/04 02:29:05;;;;;;;4.03;1.73;;;;;;;2.57;100.00;101599.09;5041716;28;20049;-76
2023/01/04 02:31:40;;;;;;;4.82;1.73;;;;;;;2.55;100.00;101599.84;5064718;28;20480;-76
2023/01/04 02:34:33;;;;;;;5.65;2.28;;;;;;;2.57;100.00;101593.00;5031463;28;20043;-76
2023/01/04 02:37:07;;;;;;;3.00;1.63;;;;;;;2.60;100.00;101600.94;5063061;28;20119;-76
2023/01/04 02:39:56;;;;;;;2.92;1.60;;;;;;;2.59;100.00;101584.44;5060810;28;20123;-76
2023/01/04 02:45:31;;;;;;;3.70;1.70;;;;;;;2.55;100.00;101569.47;5033019;28;20415;-76
2023/01/04 02:50:53;;;;;;;2.63;1.50;;;;;;;2.56;100.00;101566.03;5065431;28;20047;-76
2023/01/04 02:53:25;;;;;;;3.75;1.90;;;;;;;2.57;100.00;101565.22;5063585;28;20072;-76
2023/01/04 02:56:34;;;;;;;3.78;1.88;;;;;;;2.52;100.00;101551.09;5063224;28;20056;-76
2023/01/04 02:59:16;;;;;;;6.72;3.25;;;;;;;2.51;100.00;101549.31;5064634;28;20048;-76
2023/01/04 03:08:11;;;;;;;4.45;2.40;;;;;;;2.52;100.00;101529.38;5061727;28;20047;-76
2023/01/04 03:10:42;;;;;;;3.63;1.75;;;;;;;2.52;100.00;101522.44;5058374;28;20490;-76
2023/01/04 03:13:24;;;;;;;6.13;2.13;;;;;;;2.57;100.00;101518.31;5064225;28;20033;-76
2023/01/04 03:15:57;;;;;;;5.10;1.88;;;;;;;2.64;100.00;101512.50;5059172;28;20135;-76
2023/01/04 03:18:28;;;;;;;5.28;2.10;;;;;;;2.72;100.00;101517.16;5063228;28;20037;-76
2023/01/04 03:20:56;;;;;;;4.68;1.85;;;;;;;2.78;100.00;101505.28;5057527;28;20407;-76
2023/01/04 03:43:08;;;;;;;4.65;2.05;;;;;;;3.04;100.00;101466.31;5064381;28;20040;-76
2023/01/04 03:49:30;;;;;;;7.40;3.17;;;;;;;3.17;100.00;101463.38;5058946;28;20043;-76
2023/01/04 03:51:59;;;;;;;7.45;2.80;;;;;;;3.22;100.00;101447.88;5061376;28;20040;-75
2023/01/04 03:54:30;;;;;;;4.72;2.17;;;;;;;3.27;100.00;101447.25;5063020;28;20043;-76
2023/01/04 03:56:57;;;;;;;5.65;2.00;;;;;;;3.33;100.00;101443.97;5061997;28;20083;-76
2023/01/04 03:59:23;;;;;;;4.78;1.95;;;;;;;3.34;100.00;101442.25;5060469;28;20047;-75
2023/01/04 04:01:48;;;;;;;6.82;1.52;;;;;;;3.33;100.00;101432.63;5064405;28;20037;-76
2023/01/04 04:09:42;;;;;;;3.97;1.88;;;;;;;3.39;100.00;101412.88;5063332;28;20407;-76
2023/01/04 04:12:07;;;;;;;4.15;2.40;;;;;;;3.38;100.00;101410.19;5061211;28;20048;-76
2023/01/04 04:14:32;;;;;;;4.60;2.15;;;;;;;3.35;100.00;101412.69;5062214;28;20060;-76
2023/01/04 04:16:58;;;;;;;5.10;1.88;;;;;;;3.35;100.00;101404.88;5063142;28;20052;-76
2023/01/04 04:19:23;;;;;;;3.63;1.65;;;;;;;3.32;100.00;101394.31;5061870;28;20549;-75
2023/01/04 04:21:48;;;;;;;4.85;1.85;;;;;;;3.28;100.00;101388.13;5062414;28;20040;-76
2023/01/04 04:24:19;;;;;;;5.78;1.90;;;;;;;3.27;100.00;101386.31;5063039;28;20070;-76
2023/01/04 04:26:45;;;;;;;5.20;2.20;;;;;;;3.33;100.00;101383.97;5059523;28;20037;-76
2023/01/04 04:29:10;;;;;;;8.57;2.22;;;;;;;3.35;100.00;101374.44;5062538;28;20078;-76
2023/01/04 04:31:36;;;;;;;3.88;2.10;;;;;;;3.35;100.00;101366.59;5061324;28;20511;-76
2023/01/04 04:34:01;;;;;;;3.80;1.55;;;;;;;3.37;100.00;101370.16;5062715;28;20115;-76
2023/01/04 04:36:27;;;;;;;3.60;1.50;;;;;;;3.38;100.00;101358.00;5062569;28;20124;-76
2023/01/04 04:38:52;;;;;;;3.53;1.73;;;;;;;3.43;100.00;101364.28;5061408;28;20037;-76
2023/01/04 04:44:01;;;;;;;4.28;1.85;;;;;;;3.42;100.00;101352.97;5061692;28;20185;-76
2023/01/04 04:46:26;;;;;;;5.35;1.83;;;;;;;3.44;100.00;101353.91;5060663;28;20111;-76
2023/01/04 04:48:52;;;;;;;5.38;1.77;;;;;;;3.47;100.00;101345.31;5063081;28;20170;-76
2023/01/04 04:51:17;;;;;;;5.63;1.73;;;;;;;3.53;100.00;101337.69;5060799;28;20041;-76
2023/01/04 04:53:43;;;;;;;4.05;2.17;;;;;;;3.59;100.00;101342.22;5063239;28;20032;-76
2023/01/04 04:56:08;;;;;;;5.10;2.05;;;;;;;3.62;100.00;101337.13;5061728;28;20043;-76
2023/01/04 04:58:34;;;;;;;4.88;1.95;;;;;;;3.64;100.00;101330.22;5061705;28;20407;-76
2023/01/04 05:01:00;;;;;;;3.38;1.92;;;;;;;3.67;100.00;101328.63;5059677;28;20399;-76
2023/01/04 05:03:25;;;;;;;4.93;2.22;;;;;;;3.69;100.00;101318.22;5059453;28;20078;-76
2023/01/04 05:05:50;;;;;;;3.70;2.40;;;;;;;3.73;100.00;101315.78;5060012;28;20486;-76
2023/01/04 05:08:15;;;;;;;4.50;1.98;;;;;;;3.78;100.00;101310.72;5044172;28;20514;-76
2023/01/04 05:10:41;;;;;;;3.75;1.80;;;;;;;3.82;100.00;101304.75;5088257;23;20016;-77
2023/01/04 05:13:09;;;;;;;3.40;2.00;;;;;;;3.89;100.00;101295.41;5061578;28;20060;-76
2023/01/04 05:15:40;;;;;;;6.13;2.15;;;;;;;3.95;100.00;101296.47;5058781;28;20056;-77
2023/01/04 05:18:07;;;;;;;4.45;2.40;;;;;;;4.00;100.00;101287.91;5056407;28;20041;-77
2023/01/04 05:20:33;;;;;;;4.50;1.83;;;;;;;4.07;100.00;101282.94;5061290;28;20021;-76
2023/01/04 05:22:58;;;;;;;3.13;1.58;;;;;;;4.14;100.00;101284.94;5061203;28;20032;-76
2023/01/04 05:25:24;;;;;;;8.63;3.03;;;;;;;4.18;100.00;101278.94;5061853;28;20090;-77
2023/01/04 05:27:50;;;;;;;8.43;4.22;;;;;;;4.26;100.00;101271.34;5059138;28;20033;-77
2023/01/04 05:33:00;;;;;;;5.30;2.25;;;;;;;4.36;100.00;101262.06;5061440;28;20082;-77
2023/01/04 05:35:26;;;;;;;4.20;1.80;;;;;;;4.38;100.00;101260.41;5061247;28;20041;-77
2023/01/04 05:37:51;;;;;;;4.43;1.70;;;;;;;4.42;100.00;101261.38;5061533;28;20077;-76
2023/01/04 05:40:17;;;;;;;5.72;1.90;;;;;;;4.49;100.00;101252.88;5060357;28;20550;-78
2023/01/04 05:42:42;;;;;;;4.32;2.00;;;;;;;4.52;100.00;101256.47;5061075;28;20539;-77
2023/01/04 05:45:08;;;;;;;5.38;1.83;;;;;;;4.55;100.00;101242.59;5060905;28;20048;-77
2023/01/04 05:47:34;;;;;;;6.07;1.98;;;;;;;4.59;100.00;101239.25;5061931;28;20068;-77
2023/01/04 05:49:59;;;;;;;5.00;2.35;;;;;;;4.64;100.00;101248.13;5057327;28;20033;-77
2023/01/04 05:52:25;;;;;;;4.75;2.22;;;;;;;4.68;100.00;101244.72;5057721;28;20064;-76
2023/01/04 05:54:50;;;;;;;6.18;2.75;;;;;;;4.75;100.00;101224.88;5061865;28;20039;-77
2023/01/04 05:57:16;;;;;;;6.68;2.20;;;;;;;4.81;100.00;101235.50;5058846;28;20155;-76
2023/01/04 05:59:41;;;;;;;5.97;2.08;;;;;;;4.89;100.00;101227.88;5061145;28;20041;-77
2023/01/04 06:02:13;;;;;;;4.43;1.90;;;;;;;5.02;100.00;101214.28;5059301;28;20041;-76
2023/01/04 06:04:38;;;;;;;4.20;1.80;;;;;;;5.11;100.00;101205.81;5055409;28;20503;-76
2023/01/04 06:07:03;;;;;;;7.68;2.13;;;;;;;5.18;100.00;101206.00;5061648;28;20036;-77
2023/01/04 06:09:28;;;;;;;6.20;2.05;;;;;;;5.22;100.00;101201.75;5060426;28;20036;-77
2023/01/04 06:11:54;;;;;;;3.55;1.90;;;;;;;5.30;100.00;101195.00;5060387;28;20036;-77
2023/01/04 06:14:19;;;;;;;4.13;1.83;;;;;;;5.40;100.00;101185.66;5061312;28;20036;-77
2023/01/04 06:16:44;;;;;;;8.48;2.47;;;;;;;5.50;100.00;101187.63;5059955;28;20247;-77
2023/01/04 06:19:10;;;;;;;3.55;1.73;;;;;;;5.54;100.00;101179.00;5058992;28;20124;-77
2023/01/04 06:21:35;;;;;;;7.22;1.90;;;;;;;5.59;100.00;101177.41;5061932;28;20147;-77
2023/01/04 06:24:00;;;;;;;6.78;2.45;;;;;;;5.61;100.00;101173.09;5059875;28;20061;-77
2023/01/04 06:26:26;;;;;;;4.60;1.92;;;;;;;5.70;100.00;101181.16;5060691;28;20072;-77
2023/01/04 06:28:51;;;;;;;6.85;1.80;;;;;;;5.81;100.00;101170.03;5060111;28;20079;-76
2023/01/04 06:31:16;;;;;;;3.60;1.58;;;;;;;5.85;100.00;101156.19;5061469;28;20080;-76
2023/01/04 06:33:41;;;;;;;5.90;1.83;;;;;;;5.90;100.00;101162.41;5059085;28;20060;-77
2023/01/04 06:36:07;;;;;;;3.55;1.50;;;;;;;5.92;100.00;101156.34;5062004;28;20078;-77
2023/01/04 06:38:33;;;;;;;4.05;1.40;;;;;;;5.99;100.00;101157.41;5059350;28;20064;-76
2023/01/04 06:40:58;;;;;;;4.53;1.60;;;;;;;6.02;100.00;101152.22;5064119;28;20068;-77
2023/01/04 06:43:24;;;;;;;3.97;1.60;;;;;;;6.06;100.00;101153.19;5064202;28;20079;-77
2023/01/04 06:45:49;;;;;;;3.53;1.50;;;;;;;6.10;100.00;101155.94;5063244;28;20518;-77
2023/01/04 06:48:14;;;;;;;3.53;1.67;;;;;;;6.12;100.00;101143.72;5065108;28;20048;-77
2023/01/04 06:50:40;;;;;;;7.93;2.03;;;;;;;6.11;100.00;101141.09;5065370;28;20037;-78
2023/01/04 06:53:05;;;;;;;4.65;1.40;;;;;;;6.13;100.00;101135.03;5062463;28;20067;-77
2023/01/04 06:55:31;;;;;;;5.78;1.85;;;;;;;6.14;100.00;101126.28;5064764;28;20037;-77
2023/01/04 06:57:56;;;;;;;3.90;1.42;;;;;;;6.19;100.00;101115.91;5063591;28;20033;-77
2023/01/04 07:00:22;;;;;;;4.22;0.82;;;;;;;6.23;100.00;101116.84;5063643;28;20039;-76
2023/01/04 07:02:47;;;;;;;4.35;1.02;;;;;;;6.24;100.00;101108.16;5064703;28;20039;-76
2023/01/04 07:05:13;;;;;;;3.33;0.75;;;;;;;6.32;100.00;101109.19;5062302;28;20033;-77
2023/01/04 07:07:38;;;;;;;3.80;0.98;;;;;;;6.35;100.00;101112.75;5062323;28;20526;-77
2023/01/04 07:10:04;;;;;;;2.97;0.80;;;;;;;6.36;100.00;101109.25;5060923;28;20040;-77
2023/01/04 07:12:30;;;;;;;1.90;0.85;;;;;;;6.38;100.00;101097.94;5062856;28;20407;-77
2023/01/04 07:14:55;;;;;;;2.47;0.85;;;;;;;6.43;100.00;101097.19;5063582;28;20119;-77
2023/01/04 07:17:21;;;;;;;2.33;0.73;;;;;;;6.55;100.00;101104.41;5063843;28;20075;-77
2023/01/04 07:19:46;;;;;;;4.07;1.73;;;;;;;6.64;99.43;101087.97;5062164;28;20068;-76
2023/01/04 07:22:11;;;;;;;1.83;0.40;;;;;;;6.79;98.38;101093.50;5064823;28;20041;-77
2023/01/04 07:24:37;;;;;;;1.65;0.50;;;;;;;6.89;97.13;101079.69;5061950;28;20048;-76
2023/01/04 07:27:02;;;;;;;1.35;0.35;;;;;;;7.07;96.19;101078.22;5063966;28;20044;-76
2023/01/04 07:29:27;;;;;;;1.50;0.40;;;;;;;7.19;95.04;101081.06;5063061;28;20044;-77
2023/01/04 07:31:53;;;;;;;2.30;0.90;;;;;;;7.28;92.77;101073.31;5063009;28;20035;-77
2023/01/04 07:34:23;;;;;;;1.52;0.50;;;;;;;7.44;92.61;101071.81;5064175;28;20090;-77
2023/01/04 07:36:49;;;;;;;1.48;0.32;;;;;;;7.52;90.67;101074.56;5061428;28;20029;-76
2023/01/04 07:39:18;;;;;;;3.72;0.77;;;;;;;7.63;89.42;101068.59;5061705;28;20047;-76
2023/01/04 07:41:44;;;;;;;1.73;0.50;;;;;;;7.71;89.10;101059.97;5063139;28;20089;-76
2023/01/04 07:44:10;;;;;;;1.83;0.60;;;;;;;7.80;89.77;101055.69;5062744;28;20630;-76
2023/01/04 07:46:36;;;;;;;2.35;0.50;;;;;;;7.81;89.80;101061.84;5061505;28;20048;-76
2023/01/04 07:49:02;;;;;;;3.05;0.82;;;;;;;7.78;90.52;101052.19;5064750;28;20032;-77
2023/01/04 07:51:29;;;;;;;2.95;0.45;;;;;;;7.75;92.92;101051.25;5060857;28;20430;-77
2023/01/04 07:53:54;;;;;;;2.42;0.68;;;;;;;7.62;93.35;101047.56;5063437;28;20040;-77
2023/01/04 07:56:19;;;;;;;1.35;0.38;;;;;;;7.58;94.88;101041.38;5062881;28;20035;-77
2023/01/04 07:58:45;;;;;;;1.77;0.50;;;;;;;7.58;96.22;101040.50;5060330;28;20044;-76
2023/01/04 08:01:12;;;;;;;1.73;0.45;;;;;;;7.58;94.98;101028.25;5061326;28;20403;-76
2023/01/04 08:03:38;;;;;;;2.67;0.47;;;;;;;7.55;97.01;101032.59;5057218;28;20124;-77
2023/01/04 08:06:06;;;;;;;1.80;0.70;;;;;;;7.50;98.24;101029.03;5062189;28;20473;-77
2023/01/04 08:08:31;;;;;;;1.92;0.40;;;;;;;7.49;98.94;101021.97;5062481;28;20115;-76
2023/01/04 08:11:23;;;;;;;4.60;0.85;;;;;;;7.44;99.39;101017.56;5061786;28;20124;-76
2023/01/04 08:13:49;;;;;;;1.05;0.50;;;;;;;7.42;99.34;101006.16;5059249;28;20074;-76
2023/01/04 08:16:32;;;;;;;2.92;0.65;;;;;;;7.45;100.00;101003.56;5059838;28;20044;-77
2023/01/04 08:19:03;;;;;;;2.33;0.50;;;;;;;7.45;100.00;101005.31;5061016;28;20055;-76
2023/01/04 08:21:31;;;;;;;2.72;0.50;;;;;;;7.44;100.00;101000.91;5060507;28;20049;-76
2023/01/04 08:23:56;;;;;;;4.03;0.80;;;;;;;7.42;100.00;100984.25;5063298;28;20089;-77
2023/01/04 08:26:22;;;;;;;8.13;1.48;;;;;;;7.46;100.00;100991.31;5061581;28;20040;-76
2023/01/04 08:28:50;;;;;;;4.32;0.50;;;;;;;7.45;100.00;100984.31;5062075;28;20044;-76
2023/01/04 08:31:18;;;;;;;2.33;0.70;;;;;;;7.46;100.00;100975.53;5063350;28;20479;-76
2023/01/04 08:33:44;;;;;;;2.42;0.52;;;;;;;7.47;100.00;100972.94;5060491;28;20052;-76
2023/01/04 08:36:11;;;;;;;4.95;1.75;;;;;;;7.46;100.00;100971.16;5062842;28;20448;-76
2023/01/04 08:38:37;;;;;;;2.15;1.05;;;;;;;7.42;100.00;100961.50;5060079;28;20028;-76
2023/01/04 08:41:02;;;;;;;4.97;0.80;;;;;;;7.45;100.00;100961.53;5062021;28;20086;-76
2023/01/04 08:43:28;;;;;;;1.70;0.50;;;;;;;7.44;100.00;100967.66;5060795;28;20079;-76
2023/01/04 08:45:53;;;;;;;4.63;0.70;;;;;;;7.42;100.00;100950.13;5063238;28;20082;-77
2023/01/04 08:48:18;;;;;;;4.05;0.90;;;;;;;7.44;100.00;100941.41;5058830;28;20076;-77
2023/01/04 08:50:44;;;;;;;3.72;0.38;;;;;;;7.41;100.00;100933.50;5062772;28;20047;-77
2023/01/04 08:53:09;;;;;;;1.40;0.63;;;;;;;7.46;100.00;100931.78;5060822;28;20033;-77
2023/01/04 08:55:35;;;;;;;0.82;0.20;;;;;;;7.49;100.00;100932.69;5061288;28;20215;-77
2023/01/04 08:58:00;;;;;;;2.58;0.40;;;;;;;7.49;100.00;100927.44;5060907;28;20032;-76
2023/01/04 09:00:26;;;;;;;1.50;0.40;;;;;;;7.50;100.00;100940.59;5062866;28;20052;-77
2023/01/04 09:02:51;;;;;;;1.88;0.73;;;;;;;7.46;100.00;100931.78;5059642;28;20086;-77
2023/01/04 09:05:17;;;;;;;4.03;1.23;;;;;;;7.55;100.00;100928.41;5063227;28;20040;-76
2023/01/04 09:07:43;;;;;;;5.13;1.40;;;;;;;7.63;100.00;100910.13;5062258;28;20375;-77
2023/01/04 09:10:08;;;;;;;3.70;0.98;;;;;;;7.73;100.00;100896.22;5061350;28;20052;-77
2023/01/04 09:12:34;;;;;;;1.80;0.60;;;;;;;7.80;100.00;100889.28;5060888;28;20036;-76
2023/01/04 09:14:59;;;;;;;2.78;0.95;;;;;;;7.70;100.00;100869.88;5062353;28;20040;-76
2023/01/04 09:17:24;;;;;;;2.00;0.55;;;;;;;7.64;100.00;100867.22;5057424;28;20103;-76
2023/01/04 09:19:49;;;;;;;1.88;0.50;;;;;;;7.64;100.00;100869.84;5055298;28;20044;-77
2023/01/04 09:22:15;;;;;;;2.13;0.70;;;;;;;7.61;100.00;100870.69;5060089;28;20045;-76
2023/01/04 09:24:40;;;;;;;2.53;0.57;;;;;;;7.61;100.00;100896.06;5061736;28;20082;-77
2023/01/04 09:27:05;;;;;;;1.15;0.20;;;;;;;7.66;100.00;100920.66;5061066;28;20044;-77
2023/01/04 09:29:31;;;;;;;3.15;0.90;;;;;;;7.63;100.00;100920.63;5059607;28;20028;-77
2023/01/04 09:31:56;;;;;;;2.65;0.65;;;;;;;7.62;100.00;100905.69;5062478;28;20090;-76
2023/01/04 09:34:21;;;;;;;1.95;0.60;;;;;;;7.66;100.00;100895.25;5062786;28;20058;-77
2023/01/04 09:36:48;;;;;;;3.65;0.63;;;;;;;7.66;100.00;100881.25;5059251;28;20108;-76
2023/01/04 09:39:14;;;;;;;2.20;0.73;;;;;;;7.66;100.00;100889.13;5060266;28;20029;-76
2023/01/04 09:41:57;;;;;;;2.15;0.73;;;;;;;7.67;100.00;100888.25;5060889;28;20032;-76
2023/01/04 09:44:41;;;;;;;3.17;0.43;;;;;;;7.63;100.00;100878.59;5057168;28;20048;-77
2023/01/04 09:47:12;;;;;;;1.70;0.60;;;;;;;7.64;100.00;100875.97;5059154;28;20033;-77
2023/01/04 09:49:43;;;;;;;1.80;0.43;;;;;;;7.67;100.00;100861.97;5057941;28;20534;-77
2023/01/04 09:52:08;;;;;;;0.75;0.35;;;;;;;7.73;99.65;100863.78;5060786;28;20376;-76
2023/01/04 09:55:08;;;;;;;1.23;0.50;;;;;;;7.83;98.31;100863.03;5063364;28;20059;-76
2023/01/04 09:57:44;;;;;;;2.65;0.50;;;;;;;7.82;97.68;100850.75;5043932;28;20491;-76
2023/01/04 10:00:18;;;;;;;2.83;0.45;;;;;;;7.84;96.88;100841.16;5060786;28;20066;-77
2023/01/04 10:02:48;;;;;;;6.10;0.90;;;;;;;7.88;97.12;100846.44;5056713;28;20380;-77
2023/01/04 10:05:21;;;;;;;2.33;0.60;;;;;;;7.93;96.38;100837.72;5060621;28;20040;-77
2023/01/04 10:07:46;;;;;;;1.00;0.50;;;;;;;8.00;96.32;100836.94;5062521;28;20060;-76
2023/01/04 10:10:14;;;;;;;1.27;0.40;;;;;;;8.01;95.23;100826.41;5059233;28;20071;-76
2023/01/04 10:13:01;;;;;;;1.73;0.50;;;;;;;8.06;95.14;100822.06;5060995;28;20028;-76
2023/01/04 10:15:39;;;;;;;2.90;1.42;;;;;;;8.07;95.21;100817.72;5059445;28;20090;-77
2023/01/04 10:18:09;;;;;;;1.80;0.63;;;;;;;8.06;94.95;100823.81;5063416;28;20045;-77
2023/01/04 10:20:43;;;;;;;2.90;0.40;;;;;;;8.08;94.16;100825.59;5061942;28;20101;-77
2023/01/04 10:23:19;;;;;;;1.05;0.30;;;;;;;8.05;92.91;100819.44;5062261;28;20051;-77
2023/01/04 10:25:55;;;;;;;2.50;0.65;;;;;;;8.16;92.07;100802.00;5059765;28;20507;-76
2023/01/04 10:28:59;;;;;;;1.20;0.35;;;;;;;8.13;93.25;100804.63;5062533;28;20043;-77
2023/01/04 10:31:39;;;;;;;3.70;1.30;;;;;;;8.16;91.72;100762.56;5063305;28;20116;-76
2023/01/04 10:34:18;;;;;;;5.78;1.40;;;;;;;8.19;92.06;100774.88;5062870;28;20099;-77
2023/01/04 10:36:46;;;;;;;2.58;1.23;;;;;;;8.26;92.17;100771.41;5062574;28;20399;-77
2023/01/04 10:39:15;;;;;;;3.25;1.27;;;;;;;8.28;91.57;100757.41;5063274;28;20086;-76
2023/01/04 10:41:57;;;;;;;2.70;1.38;;;;;;;8.39;91.10;100751.34;5058537;28;20090;-77
2023/01/04 10:44:27;;;;;;;3.45;1.23;;;;;;;8.38;90.58;100736.41;5063004;28;20033;-76
2023/01/04 10:47:03;;;;;;;2.33;1.15;;;;;;;8.39;91.53;100752.25;5058727;28;20120;-77
2023/01/04 10:49:54;;;;;;;5.47;1.30;;;;;;;8.47;89.81;100737.41;5062264;28;20041;-76
2023/01/04 10:52:26;;;;;;;2.80;1.33;;;;;;;8.48;89.64;100733.88;5052873;28;20037;-75
2023/01/04 10:55:16;;;;;;;2.92;1.42;;;;;;;8.62;89.67;100741.88;5059135;28;20050;-76
2023/01/04 10:57:49;;;;;;;2.42;1.33;;;;;;;8.62;89.30;100727.81;5058570;28;20048;-76
2023/01/04 11:00:24;;;;;;;2.50;1.25;;;;;;;8.61;89.12;100724.31;5063817;28;20039;-77
2023/01/04 11:03:03;;;;;;;3.63;1.42;;;;;;;8.58;89.70;100737.44;5064202;28;20479;-77
2023/01/04 11:05:37;;;;;;;4.32;1.23;;;;;;;8.57;89.73;100746.22;5062508;28;20048;-77
2023/01/04 11:08:15;;;;;;;2.47;1.20;;;;;;;8.54;90.30;100725.13;5060320;28;20033;-76
2023/01/04 11:10:50;;;;;;;3.45;1.52;;;;;;;8.51;91.33;100710.25;5062690;28;20037;-77
2023/01/04 11:13:15;;;;;;;4.22;1.38;;;;;;;8.46;91.71;100705.81;5059261;28;20041;-77
2023/01/04 11:15:41;;;;;;;4.88;1.70;;;;;;;8.48;91.95;100701.44;5063901;28;20120;-77
2023/01/04 11:18:10;;;;;;;3.20;1.40;;;;;;;8.40;92.96;100705.78;5062706;28;20045;-77
2023/01/04 11:20:35;;;;;;;3.92;1.08;;;;;;;8.41;91.65;100702.28;5057966;28;20417;-76
2023/01/04 11:23:06;;;;;;;1.63;1.05;;;;;;;8.51;91.97;100689.19;5065079;28;20040;-77
2023/01/04 11:25:38;;;;;;;5.00;1.25;;;;;;;8.45;91.29;100710.19;5061496;28;20037;-77
2023/01/04 11:28:16;;;;;;;4.07;1.60;;;;;;;8.47;91.50;100704.94;5062442;28;20243;-76
2023/01/04 11:30:57;;;;;;;6.00;1.40;;;;;;;8.52;91.34;100743.56;5058006;28;20040;-77
2023/01/04 11:36:35;;;;;;;2.33;1.25;;;;;;;8.46;90.63;100740.00;5025467;28;20407;-76
2023/01/04 11:39:02;;;;;;;2.45;1.33;;;;;;;8.49;91.53;100716.38;5024579;28;20048;-76
2023/01/04 11:41:27;;;;;;;4.00;1.30;;;;;;;8.53;91.30;100721.63;5022255;28;20038;-76
2023/01/04 11:44:04;;;;;;;2.78;1.27;;;;;;;8.52;90.96;100700.59;5024085;28;20159;-76
2023/01/04 11:46:31;;;;;;;2.20;1.05;;;;;;;8.52;90.99;100705.88;5024590;28;20128;-76
2023/01/04 11:48:56;;;;;;;1.92;1.00;;;;;;;8.51;91.19;100696.19;5026251;28;20044;-75
2023/01/04 11:51:28;;;;;;;4.43;1.30;;;;;;;8.57;91.29;100683.09;5024579;28;20037;-75
2023/01/04 11:54:18;;;;;;;3.03;1.30;;;;;;;8.51;94.02;100685.66;5025307;28;20037;-76
2023/01/04 11:57:16;;;;;;;3.53;1.70;;;;;;;8.36;96.56;100683.81;5018482;28;20641;-75
2023/01/04 11:59:41;;;;;;;3.05;1.50;;;;;;;8.15;98.49;100684.59;5026969;28;20175;-76
2023/01/04 12:02:25;;;;;;;3.75;1.40;;;;;;;7.99;100.00;100662.59;5022161;28;20038;-76
2023/01/04 12:04:52;;;;;;;3.25;1.80;;;;;;;7.98;100.00;100657.31;5021848;28;20128;-75
2023/01/04 12:07:31;;;;;;;3.38;1.45;;;;;;;8.00;100.00;100642.44;5021478;28;20068;-76
2023/01/04 12:09:58;;;;;;;4.10;1.67;;;;;;;7.97;100.00;100629.28;5022805;28;20042;-75
2023/01/04 12:12:29;;;;;;;5.90;2.40;;;;;;;8.06;100.00;100645.09;5026536;28;20037;-76
2023/01/04 12:14:59;;;;;;;4.32;1.50;;;;;;;8.13;99.21;100639.00;5024087;28;20076;-76
2023/01/04 12:17:34;;;;;;;2.80;1.17;;;;;;;8.14;98.79;100653.88;5023272;28;20120;-76
2023/01/04 12:20:03;;;;;;;2.75;1.15;;;;;;;8.16;99.44;100625.88;5021648;28;20044;-75
2023/01/04 12:22:37;;;;;;;3.33;1.65;;;;;;;8.23;99.09;100618.91;5008539;28;20385;-76
2023/01/04 12:25:07;;;;;;;3.45;1.80;;;;;;;8.26;98.76;100635.56;5021639;28;20080;-75
2023/01/04 12:27:33;;;;;;;2.80;1.38;;;;;;;8.28;97.78;100627.69;5023337;28;20041;-75